Time;durP1;ratioP1;P1;durP2;ratioP2;P2;SDS_P1;SDS_P2;PMS_P1;PMS_P2;Temp;Humidity;BMP_temperature;BMP_pressure;BME280_temperature;BME280_humidity;BME280_pressure;Samples;Min_cycle;Max_cycle;Signal;HPM_P1;HPM_P2
2024/04/08 00:00:29;;;;;;;5.30;4.80;;;18.00;99.90;;;;;;5543813;25;20537;-62
2024/04/08 00:02:55;;;;;;;4.70;4.30;;;18.00;99.90;;;;;;5511585;25;20769;-63
2024/04/08 00:05:21;;;;;;;5.30;4.10;;;18.00;99.90;;;;;;5544429;25;20444;-63
2024/04/08 00:07:48;;;;;;;4.40;4.00;;;18.10;99.90;;;;;;5542275;25;20486;-63
2024/04/08 00:10:14;;;;;;;4.53;4.20;;;18.00;99.90;;;;;;5534355;25;20639;-63
2024/04/08 00:12:44;;;;;;;5.13;4.73;;;18.00;99.90;;;;;;5543556;25;20470;-62
2024/04/08 00:15:11;;;;;;;5.43;4.40;;;17.90;99.90;;;;;;5543631;25;20528;-63
2024/04/08 00:17:40;;;;;;;7.47;4.10;;;17.90;99.90;;;;;;5543695;25;20542;-63
2024/04/08 00:20:06;;;;;;;5.40;4.93;;;17.90;99.90;;;;;;5544317;25;20428;-63
2024/04/08 00:22:32;;;;;;;6.67;4.60;;;17.90;99.90;;;;;;5543524;25;20436;-63
2024/04/08 00:24:57;;;;;;;5.10;4.70;;;17.90;99.90;;;;;;5557861;25;20515;-63
2024/04/08 00:27:23;;;;;;;6.77;4.80;;;17.90;99.90;;;;;;5539579;25;20228;-63
2024/04/08 00:29:50;;;;;;;6.00;4.97;;;17.90;99.90;;;;;;5527224;26;20228;-63
2024/04/08 00:32:15;;;;;;;7.73;5.13;;;17.90;99.90;;;;;;5528193;26;20258;-63
2024/04/08 00:34:41;;;;;;;6.27;5.60;;;17.90;99.90;;;;;;5526898;25;20437;-62
2024/04/08 00:37:08;;;;;;;5.90;5.40;;;17.90;99.90;;;;;;5528008;26;20627;-63
2024/04/08 00:39:34;;;;;;;7.67;4.83;;;17.90;99.90;;;;;;5553062;25;21069;-62
2024/04/08 00:42:00;;;;;;;5.53;5.03;;;17.90;99.90;;;;;;5563166;25;20944;-62
2024/04/08 00:44:27;;;;;;;5.50;5.10;;;17.90;99.90;;;;;;5560315;25;20452;-63
2024/04/08 00:46:54;;;;;;;6.57;5.50;;;17.90;99.90;;;;;;5564586;25;20492;-63
2024/04/08 00:49:20;;;;;;;6.27;5.70;;;17.90;99.90;;;;;;5565224;25;20428;-62
2024/04/08 00:51:47;;;;;;;6.10;5.40;;;17.90;99.90;;;;;;5564368;25;20428;-62
2024/04/08 00:54:13;;;;;;;5.60;5.10;;;17.90;99.90;;;;;;5532432;25;20419;-63
2024/04/08 00:56:40;;;;;;;6.57;5.70;;;17.90;99.90;;;;;;5564341;25;20469;-62
2024/04/08 00:59:06;;;;;;;6.10;5.63;;;17.80;99.90;;;;;;5547661;25;20228;-63
2024/04/08 01:01:33;;;;;;;6.27;5.77;;;17.80;99.90;;;;;;5527084;26;20520;-62
2024/04/08 01:03:59;;;;;;;5.97;5.57;;;17.80;99.90;;;;;;5527602;26;20483;-62
2024/04/08 01:06:24;;;;;;;6.33;5.83;;;17.80;99.90;;;;;;5527524;26;20440;-63
2024/04/08 01:08:51;;;;;;;5.90;5.50;;;17.80;99.90;;;;;;5546800;25;20455;-62
2024/04/08 01:11:17;;;;;;;6.80;6.10;;;17.70;99.90;;;;;;5564796;25;20253;-63
2024/04/08 01:13:43;;;;;;;6.53;5.87;;;17.80;99.90;;;;;;5563830;25;20463;-62
2024/04/08 01:16:09;;;;;;;7.13;6.43;;;17.70;99.90;;;;;;5532158;25;20503;-63
2024/04/08 01:18:35;;;;;;;7.27;6.40;;;17.70;99.90;;;;;;5526313;26;20425;-62
2024/04/08 01:21:01;;;;;;;7.00;6.50;;;17.70;99.90;;;;;;5540259;25;21080;-63
2024/04/08 01:23:29;;;;;;;6.97;6.47;;;17.70;99.90;;;;;;5564716;25;20257;-63
2024/04/08 01:25:55;;;;;;;7.80;7.10;;;17.70;99.90;;;;;;5563995;25;20219;-63
2024/04/08 01:28:22;;;;;;;6.37;5.87;;;17.70;99.90;;;;;;5564587;25;20815;-63
2024/04/08 01:30:51;;;;;;;6.80;6.30;;;17.70;99.90;;;;;;5563945;25;20483;-62
2024/04/08 01:33:17;;;;;;;8.90;6.07;;;17.70;99.90;;;;;;5564981;25;20428;-63
2024/04/08 01:35:43;;;;;;;7.80;7.07;;;17.70;99.90;;;;;;5550730;25;20591;-63
2024/04/08 01:38:08;;;;;;;7.67;7.07;;;17.70;99.90;;;;;;5530312;25;20564;-63
2024/04/08 01:40:34;;;;;;;6.90;6.17;;;17.70;99.90;;;;;;5563669;25;20491;-62
2024/04/08 01:43:00;;;;;;;9.90;6.87;;;17.70;99.90;;;;;;5531751;25;20286;-62
2024/04/08 01:45:25;;;;;;;7.37;6.70;;;17.60;99.90;;;;;;5564287;25;20686;-63
2024/04/08 01:47:51;;;;;;;6.53;5.83;;;17.70;99.90;;;;;;5531071;25;20219;-62
2024/04/08 01:50:17;;;;;;;7.10;6.40;;;17.60;99.90;;;;;;5564464;25;20273;-63
2024/04/08 01:52:43;;;;;;;6.83;6.23;;;17.60;99.90;;;;;;5563761;25;20269;-62
2024/04/08 01:55:08;;;;;;;7.13;6.53;;;17.60;99.90;;;;;;5564221;25;20250;-63
2024/04/08 01:57:34;;;;;;;7.57;6.97;;;17.60;99.90;;;;;;5524568;25;20240;-62
2024/04/08 02:00:00;;;;;;;8.27;7.43;;;17.60;99.90;;;;;;5549537;25;20239;-63
2024/04/08 02:02:25;;;;;;;7.80;7.13;;;17.60;99.90;;;;;;5535133;25;20282;-63
2024/04/08 02:04:51;;;;;;;10.47;9.07;;;17.60;99.90;;;;;;5526113;26;20216;-62
2024/04/08 02:07:17;;;;;;;7.97;7.27;;;17.60;99.90;;;;;;5526951;26;20227;-63
2024/04/08 02:09:43;;;;;;;7.10;6.40;;;17.60;99.90;;;;;;5526191;25;20254;-62
2024/04/08 02:12:08;;;;;;;7.00;6.50;;;17.50;99.90;;;;;;5494247;26;20331;-63
2024/04/08 02:14:34;;;;;;;7.10;6.50;;;17.50;99.90;;;;;;5525802;26;20783;-63
2024/04/08 02:17:01;;;;;;;6.40;5.90;;;17.40;99.90;;;;;;5526559;26;20757;-62
2024/04/08 02:19:27;;;;;;;7.13;6.30;;;17.30;99.90;;;;;;5526548;26;20219;-63
2024/04/08 02:21:53;;;;;;;8.03;7.00;;;17.10;99.90;;;;;;5525880;26;20473;-62
2024/04/08 02:24:19;;;;;;;9.60;6.80;;;17.20;99.90;;;;;;5494090;26;20283;-63
2024/04/08 02:26:45;;;;;;;7.40;6.90;;;17.20;99.90;;;;;;5525789;26;20477;-62
2024/04/08 02:29:11;;;;;;;7.50;6.90;;;17.20;99.90;;;;;;5534684;25;20607;-62
2024/04/08 02:31:37;;;;;;;7.10;6.47;;;17.00;99.90;;;;;;5530146;25;20939;-63
2024/04/08 02:34:04;;;;;;;7.50;6.90;;;17.00;99.90;;;;;;5563518;25;20435;-63
2024/04/08 02:36:30;;;;;;;7.57;6.97;;;17.10;99.90;;;;;;5526372;25;20766;-63
2024/04/08 02:38:55;;;;;;;7.73;7.03;;;17.10;99.90;;;;;;5525433;26;20425;-63
2024/04/08 02:41:21;;;;;;;8.83;7.87;;;17.10;99.90;;;;;;5526275;26;20738;-63
2024/04/08 02:43:47;;;;;;;8.23;7.03;;;17.10;99.90;;;;;;5525367;26;20266;-63
2024/04/08 02:46:13;;;;;;;8.07;7.37;;;17.10;99.90;;;;;;5526246;26;20259;-63
2024/04/08 02:48:39;;;;;;;8.27;7.50;;;17.20;99.90;;;;;;5525083;26;20228;-62
2024/04/08 02:51:07;;;;;;;8.10;7.30;;;17.20;99.90;;;;;;5526061;26;20424;-62
2024/04/08 02:53:36;;;;;;;8.07;7.27;;;17.10;99.90;;;;;;5526124;26;20417;-62
2024/04/08 02:56:05;;;;;;;9.57;8.63;;;16.90;99.90;;;;;;5526227;26;20428;-62
2024/04/08 02:58:31;;;;;;;8.93;8.23;;;16.80;99.90;;;;;;5524709;25;20480;-62
2024/04/08 03:01:02;;;;;;;7.60;7.00;;;16.60;99.90;;;;;;5562583;25;21011;-63
2024/04/08 03:03:28;;;;;;;9.27;7.50;;;16.50;99.90;;;;;;5563263;25;20435;-62
2024/04/08 03:05:53;;;;;;;7.70;7.10;;;16.50;99.90;;;;;;5562352;25;20946;-62
2024/04/08 03:08:19;;;;;;;7.37;6.77;;;16.20;99.90;;;;;;5528364;25;20232;-62
2024/04/08 03:10:45;;;;;;;8.07;7.07;;;16.00;99.90;;;;;;5525119;26;20266;-62
2024/04/08 03:13:11;;;;;;;6.80;6.30;;;16.00;99.90;;;;;;5526071;26;20324;-63
2024/04/08 03:15:36;;;;;;;6.83;6.23;;;15.90;99.90;;;;;;5525085;26;20239;-63
2024/04/08 03:18:06;;;;;;;6.60;6.20;;;15.70;99.90;;;;;;5524955;25;20216;-62
2024/04/08 03:20:32;;;;;;;6.87;6.30;;;15.50;99.90;;;;;;5488594;26;20225;-63
2024/04/08 03:22:58;;;;;;;8.70;6.87;;;15.30;99.90;;;;;;5487879;26;20727;-62
2024/04/08 03:25:24;;;;;;;6.70;6.07;;;15.30;99.90;;;;;;5456453;26;20900;-63
2024/04/08 03:27:51;;;;;;;6.70;6.30;;;15.30;99.90;;;;;;5487845;26;20263;-62
2024/04/08 03:30:17;;;;;;;6.60;6.20;;;15.40;99.90;;;;;;5551044;25;20241;-63
2024/04/08 03:32:42;;;;;;;6.93;6.20;;;15.60;99.90;;;;;;5561589;25;20427;-62
2024/04/08 03:35:08;;;;;;;6.80;6.37;;;15.70;99.90;;;;;;5524959;25;20528;-63
2024/04/08 03:37:34;;;;;;;10.03;6.60;;;15.90;99.90;;;;;;5525192;26;20258;-63
2024/04/08 03:40:00;;;;;;;7.10;6.40;;;16.00;99.90;;;;;;5492065;26;20232;-63
2024/04/08 03:42:25;;;;;;;8.90;8.40;;;16.10;99.90;;;;;;5492941;26;20242;-63
2024/04/08 03:44:52;;;;;;;6.90;6.40;;;16.20;99.90;;;;;;5524470;26;20224;-62
2024/04/08 03:47:18;;;;;;;6.83;6.30;;;16.30;99.90;;;;;;5525227;26;20258;-62
2024/04/08 03:49:44;;;;;;;8.57;7.77;;;16.30;99.90;;;;;;5523704;26;20448;-62
2024/04/08 03:52:10;;;;;;;6.00;5.67;;;16.30;99.90;;;;;;5524862;26;20254;-62
2024/04/08 03:54:35;;;;;;;6.90;6.40;;;16.40;99.90;;;;;;5492419;26;20425;-62
2024/04/08 03:57:01;;;;;;;6.20;5.70;;;16.50;99.90;;;;;;5491843;26;20246;-64
2024/04/08 03:59:27;;;;;;;7.50;6.23;;;16.50;99.90;;;;;;5541811;25;20235;-64
2024/04/08 04:01:52;;;;;;;10.73;6.70;;;16.60;99.90;;;;;;5525082;25;20299;-63
2024/04/08 04:04:18;;;;;;;9.30;6.70;;;16.60;99.90;;;;;;5527671;26;20239;-64
2024/04/08 04:06:44;;;;;;;6.90;6.30;;;16.40;99.90;;;;;;5527025;26;20227;-64
2024/04/08 04:09:12;;;;;;;6.67;6.10;;;16.30;99.90;;;;;;5528423;26;20212;-64
2024/04/08 04:11:38;;;;;;;6.43;5.93;;;16.20;99.90;;;;;;5528598;26;20254;-64
2024/04/08 04:14:05;;;;;;;6.57;5.97;;;16.20;99.90;;;;;;5527377;26;20465;-64
2024/04/08 04:16:31;;;;;;;5.83;5.33;;;16.20;99.90;;;;;;5527984;26;20224;-64
2024/04/08 04:18:56;;;;;;;7.00;6.50;;;16.20;99.90;;;;;;5527157;25;20504;-63
2024/04/08 04:21:22;;;;;;;6.20;5.80;;;16.30;99.90;;;;;;5528311;26;20762;-64
2024/04/08 04:23:48;;;;;;;6.20;5.80;;;16.30;99.90;;;;;;5527663;26;20587;-64
2024/04/08 04:26:13;;;;;;;6.83;6.43;;;16.30;99.90;;;;;;5558212;25;20719;-64
2024/04/08 04:28:39;;;;;;;6.30;5.80;;;16.30;99.90;;;;;;5560913;25;20277;-64
2024/04/08 04:31:05;;;;;;;6.93;6.33;;;16.30;99.90;;;;;;5560708;25;20238;-64
2024/04/08 04:33:31;;;;;;;6.83;6.20;;;16.30;99.90;;;;;;5565508;25;20282;-64
2024/04/08 04:35:58;;;;;;;7.57;6.93;;;16.30;99.90;;;;;;5564664;25;20715;-63
2024/04/08 04:38:24;;;;;;;6.67;6.20;;;16.40;99.90;;;;;;5562052;25;20222;-63
2024/04/08 04:41:04;;;;;;;9.07;8.47;;;16.30;99.90;;;;;;5527287;26;20485;-63
2024/04/08 04:43:30;;;;;;;8.40;7.70;;;16.30;99.90;;;;;;5527770;26;20425;-64
2024/04/08 04:45:57;;;;;;;6.93;6.37;;;16.30;99.90;;;;;;5527073;25;20429;-63
2024/04/08 04:48:23;;;;;;;6.80;6.30;;;16.30;99.90;;;;;;5527777;26;20493;-63
2024/04/08 04:50:49;;;;;;;6.27;5.53;;;16.30;99.90;;;;;;5524972;26;20504;-64
2024/04/08 04:53:15;;;;;;;8.93;6.23;;;16.30;99.90;;;;;;5527870;26;20496;-64
2024/04/08 04:55:40;;;;;;;9.13;8.20;;;16.30;99.90;;;;;;5527589;26;20223;-64
2024/04/08 04:58:06;;;;;;;9.70;7.57;;;16.30;99.90;;;;;;5527519;25;20572;-64
2024/04/08 05:00:34;;;;;;;9.40;7.57;;;16.30;99.90;;;;;;5551616;25;20273;-64
2024/04/08 05:03:00;;;;;;;8.37;7.40;;;16.40;99.90;;;;;;5548774;25;20239;-64
2024/04/08 05:05:26;;;;;;;7.17;5.93;;;16.40;99.90;;;;;;5532210;25;20472;-64
2024/04/08 05:07:52;;;;;;;7.70;7.00;;;16.40;99.90;;;;;;5563483;25;20435;-62
2024/04/08 05:10:17;;;;;;;7.07;6.47;;;16.40;99.90;;;;;;5545505;25;20228;-64
2024/04/08 05:12:44;;;;;;;6.80;6.20;;;16.40;99.90;;;;;;5526505;26;20437;-64
2024/04/08 05:15:10;;;;;;;7.83;7.10;;;16.50;99.90;;;;;;5527437;26;20278;-64
2024/04/08 05:17:36;;;;;;;8.20;7.40;;;16.40;99.90;;;;;;5527526;25;20778;-64
2024/04/08 05:20:03;;;;;;;8.90;8.20;;;16.40;99.90;;;;;;5526359;26;20338;-64
2024/04/08 05:22:29;;;;;;;7.97;7.37;;;16.40;99.90;;;;;;5527436;26;20623;-64
2024/04/08 05:24:55;;;;;;;9.50;7.20;;;16.50;99.90;;;;;;5526436;26;20474;-64
2024/04/08 05:27:21;;;;;;;8.37;7.57;;;16.50;99.90;;;;;;5527416;26;20501;-64
2024/04/08 05:29:47;;;;;;;7.40;6.77;;;16.50;99.90;;;;;;5524320;25;20501;-63
2024/04/08 05:32:13;;;;;;;7.57;7.00;;;16.50;99.90;;;;;;5527138;26;20441;-64
2024/04/08 05:34:39;;;;;;;8.90;8.20;;;16.60;99.90;;;;;;5527061;26;20671;-64
2024/04/08 05:37:05;;;;;;;8.80;7.90;;;16.50;99.90;;;;;;5526188;25;20224;-64
2024/04/08 05:39:31;;;;;;;7.53;6.83;;;16.50;99.90;;;;;;5494036;26;20509;-64
2024/04/08 05:41:56;;;;;;;10.70;8.73;;;16.50;99.90;;;;;;5526110;26;20240;-64
2024/04/08 05:44:22;;;;;;;8.03;7.30;;;16.50;99.90;;;;;;5526177;26;20340;-64
2024/04/08 05:46:48;;;;;;;9.20;7.40;;;16.50;99.90;;;;;;5525666;26;20272;-63
2024/04/08 05:49:13;;;;;;;7.97;7.37;;;16.60;99.90;;;;;;5526688;26;20300;-64
2024/04/08 05:51:39;;;;;;;8.97;7.77;;;16.60;99.90;;;;;;5526682;26;20331;-64
2024/04/08 05:54:05;;;;;;;7.50;6.77;;;16.70;99.90;;;;;;5525972;26;20220;-64
2024/04/08 05:56:31;;;;;;;9.43;8.50;;;16.70;99.90;;;;;;5526484;26;20231;-65
2024/04/08 05:58:57;;;;;;;9.63;7.90;;;16.70;99.90;;;;;;5492181;26;20513;-64
2024/04/08 06:01:23;;;;;;;8.73;7.97;;;16.70;99.90;;;;;;5526291;26;20279;-64
2024/04/08 06:03:49;;;;;;;7.90;7.20;;;16.60;99.90;;;;;;5547540;25;20226;-64
2024/04/08 06:06:18;;;;;;;7.47;6.60;;;16.40;99.90;;;;;;5526363;25;20978;-64
2024/04/08 06:08:44;;;;;;;9.40;7.83;;;16.40;99.90;;;;;;5492514;26;20736;-62
2024/04/08 06:11:10;;;;;;;10.20;8.00;;;16.30;99.90;;;;;;5525803;26;20477;-68
2024/04/08 06:13:35;;;;;;;7.90;6.30;;;16.30;99.90;;;;;;5527957;25;20227;-66
2024/04/08 06:16:02;;;;;;;8.00;7.30;;;16.30;99.90;;;;;;5531606;25;20360;-67
2024/04/08 06:18:28;;;;;;;7.50;6.57;;;16.30;99.90;;;;;;5526097;26;20310;-70
2024/04/08 06:20:58;;;;;;;8.67;6.30;;;16.30;99.90;;;;;;5525793;26;20441;-67
2024/04/08 06:23:24;;;;;;;9.43;6.63;;;16.30;99.90;;;;;;5524116;26;20774;-64
2024/04/08 06:26:00;;;;;;;9.27;8.33;;;16.40;99.90;;;;;;5525669;26;21011;-64
2024/04/08 06:28:26;;;;;;;9.07;8.27;;;16.40;99.90;;;;;;5526398;26;20429;-64
2024/04/08 06:30:51;;;;;;;11.00;9.17;;;16.30;99.90;;;;;;5547495;25;20451;-63
2024/04/08 06:33:17;;;;;;;8.03;7.33;;;16.30;99.90;;;;;;5563808;25;20227;-67
2024/04/08 06:35:44;;;;;;;7.83;7.10;;;16.30;99.90;;;;;;5545115;25;20232;-64
2024/04/08 06:38:12;;;;;;;8.57;7.80;;;16.40;99.90;;;;;;5525445;26;20228;-64
2024/04/08 06:40:38;;;;;;;7.53;6.83;;;16.40;99.90;;;;;;5525709;26;21099;-64
2024/04/08 06:43:04;;;;;;;7.37;6.77;;;16.30;99.90;;;;;;5507634;25;20451;-64
2024/04/08 06:45:29;;;;;;;8.23;7.27;;;16.40;99.90;;;;;;5526829;25;20239;-65
2024/04/08 06:47:55;;;;;;;8.13;7.10;;;16.40;99.90;;;;;;5524628;26;20449;-65
2024/04/08 06:50:21;;;;;;;9.87;8.20;;;16.40;99.90;;;;;;5525871;26;20232;-67
2024/04/08 06:52:47;;;;;;;6.90;6.30;;;16.50;99.90;;;;;;5526304;25;20228;-65
2024/04/08 06:55:13;;;;;;;8.90;7.07;;;16.50;99.90;;;;;;5492773;26;20510;-65
2024/04/08 06:57:39;;;;;;;7.50;6.90;;;16.50;99.90;;;;;;5536817;25;20283;-65
2024/04/08 07:00:05;;;;;;;8.53;7.73;;;16.50;99.90;;;;;;5524905;25;20445;-65
2024/04/08 07:02:30;;;;;;;8.53;6.83;;;16.50;99.90;;;;;;5525522;26;20356;-65
2024/04/08 07:04:56;;;;;;;8.47;7.20;;;16.60;99.90;;;;;;5524923;26;20445;-67
2024/04/08 07:07:22;;;;;;;7.53;6.83;;;16.70;99.90;;;;;;5493291;26;20734;-67
2024/04/08 07:09:48;;;;;;;7.70;6.90;;;16.80;99.90;;;;;;5546348;25;20235;-68
2024/04/08 07:12:13;;;;;;;9.13;8.33;;;16.90;99.90;;;;;;5542965;25;20243;-68
2024/04/08 07:14:39;;;;;;;7.40;6.27;;;17.00;99.90;;;;;;5526803;25;20248;-68
2024/04/08 07:17:05;;;;;;;12.57;10.50;;;17.10;99.90;;;;;;5524842;26;20220;-68
2024/04/08 07:19:30;;;;;;;8.17;6.60;;;17.20;99.90;;;;;;5527719;25;20228;-68
2024/04/08 07:21:56;;;;;;;7.13;6.03;;;17.20;99.90;;;;;;5524886;26;20258;-66
2024/04/08 07:24:22;;;;;;;9.00;8.20;;;17.20;99.90;;;;;;5524638;25;20275;-66
2024/04/08 07:26:48;;;;;;;9.60;9.00;;;17.30;99.90;;;;;;5525044;25;20742;-67
2024/04/08 07:29:13;;;;;;;8.10;6.77;;;17.40;99.90;;;;;;5524654;26;20215;-66
2024/04/08 07:31:39;;;;;;;7.07;6.37;;;17.40;99.90;;;;;;5525411;26;20236;-75
2024/04/08 07:34:05;;;;;;;7.93;7.17;;;17.50;99.90;;;;;;5521741;26;20343;-66
2024/04/08 07:36:30;;;;;;;8.53;7.57;;;17.60;99.90;;;;;;5496333;26;20220;-68
2024/04/08 07:38:56;;;;;;;9.07;8.27;;;17.70;99.90;;;;;;5528365;26;20216;-65
2024/04/08 07:41:22;;;;;;;10.70;9.60;;;17.80;99.90;;;;;;5528908;26;20212;-65
2024/04/08 07:43:48;;;;;;;9.27;8.50;;;17.80;99.90;;;;;;5528410;26;20313;-65
2024/04/08 07:46:14;;;;;;;9.50;8.63;;;17.90;99.90;;;;;;5528285;26;20877;-66
2024/04/08 07:48:40;;;;;;;11.37;10.13;;;17.90;99.90;;;;;;5528784;26;20223;-65
2024/04/08 07:51:06;;;;;;;9.87;8.97;;;17.90;99.90;;;;;;5527458;25;20568;-64
2024/04/08 07:53:32;;;;;;;10.60;9.70;;;17.90;99.90;;;;;;5493953;26;20280;-64
2024/04/08 07:55:59;;;;;;;10.70;9.00;;;17.90;99.90;;;;;;5526515;26;20598;-63
2024/04/08 07:58:26;;;;;;;9.37;8.53;;;18.00;99.90;;;;;;5527795;25;20899;-64
2024/04/08 08:00:59;;;;;;;8.73;7.93;;;18.10;99.90;;;;;;5528276;26;20445;-65
2024/04/08 08:03:26;;;;;;;9.00;8.10;;;18.20;99.90;;;;;;5535111;25;20443;-65
2024/04/08 08:05:56;;;;;;;10.93;8.33;;;18.20;99.90;;;;;;5527607;26;20504;-65
2024/04/08 08:08:22;;;;;;;10.10;8.83;;;18.20;99.90;;;;;;5528255;26;20452;-65
2024/04/08 08:10:47;;;;;;;8.80;8.00;;;18.20;99.90;;;;;;5528132;25;20425;-66
2024/04/08 08:13:13;;;;;;;10.20;8.30;;;18.30;99.90;;;;;;5527569;26;20507;-65
2024/04/08 08:15:39;;;;;;;10.07;9.00;;;18.30;99.90;;;;;;5528214;26;20282;-65
2024/04/08 08:18:05;;;;;;;9.23;8.30;;;18.30;99.90;;;;;;5527829;26;20278;-64
2024/04/08 08:20:31;;;;;;;9.33;8.17;;;18.40;99.90;;;;;;5528554;26;20575;-65
2024/04/08 08:23:00;;;;;;;9.20;8.30;;;18.40;99.90;;;;;;5528630;25;20465;-64
2024/04/08 08:25:26;;;;;;;11.10;10.10;;;18.40;99.90;;;;;;5526112;26;20367;-65
2024/04/08 08:27:52;;;;;;;8.90;7.97;;;18.50;99.90;;;;;;5527424;25;20507;-65
2024/04/08 08:30:18;;;;;;;9.37;8.40;;;18.50;99.90;;;;;;5551223;25;20455;-64
2024/04/08 08:32:44;;;;;;;9.03;8.33;;;18.50;99.90;;;;;;5553895;25;20433;-65
2024/04/08 08:35:11;;;;;;;8.50;7.87;;;18.50;99.90;;;;;;5524642;25;20518;-65
2024/04/08 08:37:36;;;;;;;8.93;8.13;;;18.50;99.90;;;;;;5528050;26;20937;-65
2024/04/08 08:40:03;;;;;;;8.80;8.00;;;18.60;99.90;;;;;;5532619;25;20455;-65
2024/04/08 08:42:29;;;;;;;8.10;7.30;;;18.60;99.90;;;;;;5529830;25;20232;-65
2024/04/08 08:44:57;;;;;;;7.90;7.20;;;18.70;99.90;;;;;;5528009;26;20960;-65
2024/04/08 08:47:24;;;;;;;8.90;7.60;;;18.70;99.90;;;;;;5527266;26;20436;-65
2024/04/08 08:49:55;;;;;;;8.40;7.60;;;18.80;99.90;;;;;;5528092;25;20494;-66
2024/04/08 08:52:21;;;;;;;8.43;7.33;;;18.90;99.90;;;;;;5523650;26;20444;-65
2024/04/08 08:54:51;;;;;;;8.67;7.97;;;18.90;99.90;;;;;;5531375;25;20525;-68
2024/04/08 08:57:16;;;;;;;7.70;6.93;;;19.00;99.90;;;;;;5533433;25;20457;-65
2024/04/08 08:59:43;;;;;;;8.40;7.70;;;19.00;99.90;;;;;;5565055;25;20479;-65
2024/04/08 09:02:14;;;;;;;9.23;8.43;;;19.20;99.90;;;;;;5545417;25;20228;-64
2024/04/08 09:04:41;;;;;;;10.37;8.37;;;19.30;99.90;;;;;;5527141;26;20485;-65
2024/04/08 09:07:07;;;;;;;9.77;8.47;;;19.40;99.90;;;;;;5526038;26;20549;-65
2024/04/08 09:09:33;;;;;;;8.80;7.90;;;19.50;99.90;;;;;;5526857;25;20484;-64
2024/04/08 09:12:00;;;;;;;9.10;8.30;;;19.60;99.90;;;;;;5564344;25;20484;-63
2024/04/08 09:14:30;;;;;;;8.90;8.10;;;19.60;99.90;;;;;;5564473;25;20476;-65
2024/04/08 09:17:08;;;;;;;7.60;6.67;;;19.70;99.90;;;;;;5531971;25;20475;-66
2024/04/08 09:19:35;;;;;;;8.43;7.40;;;19.80;99.90;;;;;;5564920;25;20427;-65
2024/04/08 09:22:00;;;;;;;10.10;8.10;;;20.00;99.90;;;;;;5564059;25;20431;-65
2024/04/08 09:24:27;;;;;;;6.83;5.90;;;20.10;99.90;;;;;;5564788;25;20778;-65
2024/04/08 09:26:53;;;;;;;9.00;7.27;;;20.10;99.90;;;;;;5564700;25;20324;-65
2024/04/08 09:29:19;;;;;;;8.80;7.93;;;20.20;99.90;;;;;;5564037;25;20428;-65
2024/04/08 09:31:45;;;;;;;7.27;6.70;;;20.30;99.90;;;;;;5564715;25;20599;-65
2024/04/08 09:34:11;;;;;;;6.93;6.33;;;20.50;99.90;;;;;;5553795;25;20242;-64
2024/04/08 09:36:40;;;;;;;6.77;6.10;;;20.70;99.90;;;;;;5562368;25;20451;-65
2024/04/08 09:39:09;;;;;;;7.03;6.43;;;20.90;99.90;;;;;;5563877;25;20416;-64
2024/04/08 09:41:36;;;;;;;10.47;6.13;;;21.00;99.90;;;;;;5564705;25;20435;-64
2024/04/08 09:44:02;;;;;;;7.07;6.47;;;21.20;99.90;;;;;;5563678;25;20819;-63
2024/04/08 09:46:28;;;;;;;7.17;6.50;;;21.50;99.90;;;;;;5531422;25;20451;-64
2024/04/08 09:48:54;;;;;;;6.57;5.57;;;21.60;99.90;;;;;;5564518;25;20513;-65
2024/04/08 09:51:20;;;;;;;7.13;6.53;;;21.80;99.90;;;;;;5530722;25;20938;-65
2024/04/08 09:53:46;;;;;;;6.20;5.63;;;22.10;99.90;;;;;;5564187;25;20294;-65
2024/04/08 09:56:16;;;;;;;7.10;6.50;;;22.30;99.90;;;;;;5563514;25;20552;-64
2024/04/08 09:59:04;;;;;;;7.87;5.90;;;22.50;99.90;;;;;;5562615;25;20552;-65
2024/04/08 10:01:29;;;;;;;6.83;5.80;;;22.80;99.90;;;;;;5563070;25;20498;-65
2024/04/08 10:03:59;;;;;;;6.70;5.90;;;23.00;99.90;;;;;;5560454;25;21009;-65
2024/04/08 10:06:26;;;;;;;7.40;5.80;;;23.30;99.90;;;;;;5557631;25;20636;-65
2024/04/08 10:08:52;;;;;;;6.40;6.00;;;23.50;99.90;;;;;;5563975;25;20486;-65
2024/04/08 10:11:18;;;;;;;6.23;5.63;;;23.70;99.90;;;;;;5529897;25;20490;-64
2024/04/08 10:13:48;;;;;;;6.90;5.47;;;23.70;98.30;;;;;;5563163;25;20443;-65
2024/04/08 10:16:18;;;;;;;6.20;5.60;;;23.80;99.20;;;;;;5563199;25;20431;-65
2024/04/08 10:18:56;;;;;;;9.40;5.50;;;23.90;99.90;;;;;;5563937;25;20428;-65
2024/04/08 10:21:25;;;;;;;5.67;4.50;;;24.00;99.90;;;;;;5563237;25;20423;-65
2024/04/08 10:23:52;;;;;;;7.30;6.50;;;24.10;99.90;;;;;;5563924;25;20495;-65
2024/04/08 10:26:18;;;;;;;4.70;4.27;;;24.20;99.10;;;;;;5562953;25;20549;-67
2024/04/08 10:28:44;;;;;;;8.10;6.40;;;24.30;97.20;;;;;;5563671;25;20435;-71
2024/04/08 10:31:13;;;;;;;5.53;5.13;;;24.30;98.80;;;;;;5554826;25;20310;-67
2024/04/08 10:33:39;;;;;;;5.60;5.00;;;24.30;94.40;;;;;;5563155;25;20431;-66
2024/04/08 10:36:05;;;;;;;5.57;5.07;;;24.20;94.80;;;;;;5562893;25;20475;-65
2024/04/08 10:38:31;;;;;;;4.60;4.20;;;24.30;96.10;;;;;;5563619;25;20223;-65
2024/04/08 10:41:07;;;;;;;6.70;6.07;;;24.30;95.10;;;;;;5563667;25;20480;-66
2024/04/08 10:43:36;;;;;;;6.33;5.67;;;24.40;94.90;;;;;;5499885;25;20439;-65
2024/04/08 10:46:11;;;;;;;8.27;4.87;;;24.50;94.10;;;;;;5563576;25;20784;-66
2024/04/08 10:48:39;;;;;;;5.83;5.10;;;24.50;93.80;;;;;;5549849;25;20528;-66
2024/04/08 10:51:06;;;;;;;5.60;5.23;;;24.60;95.10;;;;;;5532100;25;20501;-65
2024/04/08 10:53:32;;;;;;;5.27;4.60;;;24.60;93.50;;;;;;5525438;26;20870;-67
2024/04/08 10:55:59;;;;;;;5.80;5.40;;;24.60;94.40;;;;;;5525517;25;20444;-65
2024/04/08 10:58:25;;;;;;;5.50;5.00;;;24.60;95.70;;;;;;5525335;26;20662;-65
2024/04/08 11:00:51;;;;;;;5.43;4.93;;;24.60;94.70;;;;;;5525958;26;20767;-70
2024/04/08 11:03:17;;;;;;;6.53;4.77;;;24.70;93.90;;;;;;5540502;25;20234;-65
2024/04/08 11:05:43;;;;;;;9.40;8.60;;;24.80;92.30;;;;;;5553500;25;20548;-63
2024/04/08 11:08:12;;;;;;;6.43;5.40;;;25.00;93.30;;;;;;5523229;26;20501;-65
2024/04/08 11:10:42;;;;;;;13.83;7.60;;;25.10;91.20;;;;;;5492497;26;20956;-65
2024/04/08 11:13:09;;;;;;;11.50;5.53;;;25.20;93.30;;;;;;5534141;25;20495;-65
2024/04/08 11:15:35;;;;;;;6.00;5.50;;;25.20;90.80;;;;;;5557438;25;20512;-66
2024/04/08 11:18:00;;;;;;;8.07;7.27;;;25.00;89.50;;;;;;5559371;25;20439;-65
2024/04/08 11:20:27;;;;;;;6.97;5.57;;;24.80;91.10;;;;;;5549568;25;20572;-65
2024/04/08 11:22:54;;;;;;;7.80;7.00;;;24.80;91.10;;;;;;5538941;25;20537;-65
2024/04/08 11:25:20;;;;;;;5.90;5.40;;;24.90;90.00;;;;;;5524459;26;20530;-64
2024/04/08 11:27:46;;;;;;;5.60;5.13;;;24.70;89.10;;;;;;5544109;25;20451;-65
2024/04/08 11:30:16;;;;;;;6.90;5.60;;;24.70;90.70;;;;;;5524650;26;20258;-65
2024/04/08 11:32:42;;;;;;;7.70;5.53;;;24.80;90.90;;;;;;5544533;25;20515;-65
2024/04/08 11:35:08;;;;;;;5.73;5.33;;;24.90;92.20;;;;;;5494159;25;20467;-65
2024/04/08 11:37:34;;;;;;;5.83;5.20;;;25.00;90.60;;;;;;5562732;25;20416;-65
2024/04/08 11:40:03;;;;;;;5.80;5.00;;;25.00;89.00;;;;;;5529577;25;20437;-65
2024/04/08 11:42:29;;;;;;;6.80;6.20;;;25.00;87.60;;;;;;5524492;26;20432;-65
2024/04/08 11:44:59;;;;;;;6.60;6.00;;;24.80;87.20;;;;;;5538519;25;20467;-65
2024/04/08 11:47:25;;;;;;;5.93;5.23;;;24.70;87.40;;;;;;5561697;25;20237;-65
2024/04/08 11:49:51;;;;;;;7.33;4.70;;;24.50;88.50;;;;;;5545276;25;20446;-65
2024/04/08 11:52:17;;;;;;;14.30;12.80;;;24.30;89.00;;;;;;5528887;25;20501;-65
2024/04/08 11:54:43;;;;;;;6.83;6.20;;;24.20;89.60;;;;;;5562138;25;20491;-66
2024/04/08 11:57:10;;;;;;;6.93;4.83;;;24.20;90.20;;;;;;5550409;25;20437;-63
2024/04/08 11:59:35;;;;;;;5.80;5.27;;;24.10;90.20;;;;;;5524404;26;20512;-66
2024/04/08 12:02:03;;;;;;;5.37;4.87;;;24.20;91.30;;;;;;5524686;26;20493;-66
2024/04/08 12:04:29;;;;;;;5.27;4.77;;;24.30;91.90;;;;;;5491164;26;21022;-65
2024/04/08 12:06:55;;;;;;;5.47;4.60;;;24.30;91.30;;;;;;5539074;25;20666;-66
2024/04/08 12:09:22;;;;;;;6.13;5.63;;;24.50;90.60;;;;;;5560661;25;20509;-65
2024/04/08 12:11:48;;;;;;;4.70;4.30;;;24.50;91.90;;;;;;5529328;25;20435;-67
2024/04/08 12:14:13;;;;;;;6.30;5.43;;;24.60;93.20;;;;;;5547172;25;21066;-65
2024/04/08 12:16:39;;;;;;;5.40;5.00;;;24.70;91.80;;;;;;5524124;26;20274;-65
2024/04/08 12:19:05;;;;;;;7.07;6.50;;;24.80;90.40;;;;;;5524573;26;20327;-66
2024/04/08 12:21:32;;;;;;;9.40;5.07;;;24.80;90.80;;;;;;5523015;25;20645;-66
2024/04/08 12:23:58;;;;;;;5.70;5.10;;;24.90;90.70;;;;;;5527956;26;20496;-63
2024/04/08 12:26:23;;;;;;;5.87;4.93;;;24.90;90.00;;;;;;5526954;26;20432;-63
2024/04/08 12:28:49;;;;;;;7.33;4.37;;;24.80;89.00;;;;;;5527554;26;20497;-63
2024/04/08 12:31:15;;;;;;;7.80;4.87;;;24.80;90.00;;;;;;5526717;26;20239;-63
2024/04/08 12:33:41;;;;;;;5.30;4.90;;;24.70;86.80;;;;;;5495054;26;20220;-64
2024/04/08 12:36:10;;;;;;;5.70;5.13;;;24.70;91.00;;;;;;5527885;25;20216;-63
2024/04/08 12:38:37;;;;;;;7.17;5.37;;;24.70;89.70;;;;;;5515510;26;20283;-63
2024/04/08 12:41:03;;;;;;;5.83;5.10;;;24.70;89.90;;;;;;5527783;26;20453;-64